Time;durP1;ratioP1;P1;durP2;ratioP2;P2;SDS_P1;SDS_P2;PMS_P1;PMS_P2;Temp;Humidity;BMP_temperature;BMP_pressure;BME280_temperature;BME280_humidity;BME280_pressure;Samples;Min_cycle;Max_cycle;Signal;HPM_P1;HPM_P2
2021/04/26 00:01:44;;;;;;;2.65;0.95;;;10.80;33.50;;;;;;2361856;53;20941;-66
2021/04/26 00:04:10;;;;;;;2.25;0.80;;;10.70;33.60;;;;;;2370570;54;20961;-66
2021/04/26 00:06:36;;;;;;;2.55;1.08;;;10.70;33.60;;;;;;2371337;53;21021;-66
2021/04/26 00:09:04;;;;;;;2.95;1.00;;;10.60;33.70;;;;;;2370765;53;20946;-66
2021/04/26 00:11:30;;;;;;;2.28;1.00;;;10.60;33.60;;;;;;2358253;53;20917;-66
2021/04/26 00:13:56;;;;;;;3.35;1.10;;;10.60;33.70;;;;;;2363996;53;21112;-67
2021/04/26 00:16:22;;;;;;;1.50;0.73;;;10.60;33.70;;;;;;2370795;53;20934;-66
2021/04/26 00:18:49;;;;;;;1.70;0.77;;;10.60;33.70;;;;;;2366784;53;21015;-66
2021/04/26 00:21:15;;;;;;;2.37;0.98;;;10.50;33.70;;;;;;2475209;53;21046;-66
2021/04/26 00:23:41;;;;;;;4.70;1.00;;;10.50;33.80;;;;;;2352331;53;21025;-66
2021/04/26 00:26:16;;;;;;;2.20;0.98;;;10.50;33.90;;;;;;2489707;52;21811;-65
2021/04/26 00:28:42;;;;;;;2.72;0.98;;;10.40;33.80;;;;;;2618804;52;21411;-66
2021/04/26 00:31:09;;;;;;;3.00;1.05;;;10.40;33.90;;;;;;2371198;54;21041;-66
2021/04/26 00:33:35;;;;;;;2.80;1.00;;;10.40;34.00;;;;;;2371330;54;21245;-66
2021/04/26 00:36:03;;;;;;;2.58;1.20;;;10.40;34.00;;;;;;2370975;54;20989;-66
2021/04/26 00:38:29;;;;;;;2.35;1.17;;;10.30;34.20;;;;;;2371367;53;20945;-66
2021/04/26 00:40:55;;;;;;;2.83;1.10;;;10.30;34.20;;;;;;2367647;53;21025;-66
2021/04/26 00:43:22;;;;;;;2.97;1.20;;;10.30;34.20;;;;;;2373868;53;20926;-66
2021/04/26 00:45:48;;;;;;;1.95;0.85;;;10.20;34.20;;;;;;2370816;53;20938;-65
2021/04/26 00:48:14;;;;;;;2.95;1.05;;;10.20;34.30;;;;;;2371249;54;20995;-63
2021/04/26 00:50:42;;;;;;;2.45;0.93;;;10.10;34.30;;;;;;2370647;53;20942;-66
2021/04/26 00:53:08;;;;;;;2.78;0.90;;;10.10;34.40;;;;;;2368669;53;21024;-66
2021/04/26 00:55:38;;;;;;;3.35;1.10;;;10.00;34.50;;;;;;2334782;54;21033;-66
2021/04/26 00:58:04;;;;;;;1.58;0.80;;;10.00;34.50;;;;;;2372006;54;20982;-66
2021/04/26 01:00:30;;;;;;;3.22;1.33;;;10.00;34.50;;;;;;2374088;53;21533;-66
2021/04/26 01:02:57;;;;;;;3.03;1.12;;;9.90;35.40;;;;;;2370728;53;20942;-66
2021/04/26 01:05:29;;;;;;;3.08;0.93;;;9.90;35.40;;;;;;2371040;53;21822;-66
2021/04/26 01:07:57;;;;;;;2.78;1.10;;;9.90;35.40;;;;;;2371837;54;20914;-66
2021/04/26 01:10:25;;;;;;;2.83;1.00;;;9.80;35.40;;;;;;2371997;54;20953;-66
2021/04/26 01:14:35;;;;;;;3.97;1.17;;;9.80;35.60;;;;;;2348875;53;20939;-66
2021/04/26 01:17:08;;;;;;;2.67;1.10;;;9.80;36.20;;;;;;2371701;53;20977;-67
2021/04/26 01:20:06;;;;;;;2.60;1.10;;;9.70;35.50;;;;;;2371040;53;21394;-67
2021/04/26 01:28:03;;;;;;;2.62;0.98;;;9.70;35.80;;;;;;2370869;54;20925;-66
2021/04/26 01:30:43;;;;;;;1.65;0.80;;;9.60;35.90;;;;;;2369902;53;20952;-66
2021/04/26 01:33:11;;;;;;;2.05;0.98;;;9.50;35.60;;;;;;2351141;54;21009;-66
2021/04/26 01:35:39;;;;;;;2.53;0.95;;;9.40;35.50;;;;;;2372780;53;21001;-67
2021/04/26 01:38:13;;;;;;;2.97;1.00;;;9.30;35.60;;;;;;2371576;54;20970;-66
2021/04/26 01:40:42;;;;;;;4.55;1.30;;;9.30;35.80;;;;;;2371052;54;20970;-66
2021/04/26 01:43:10;;;;;;;2.72;1.15;;;9.30;35.90;;;;;;2371455;53;20957;-66
2021/04/26 01:45:36;;;;;;;2.75;1.08;;;9.20;36.00;;;;;;2370500;54;20972;-65
2021/04/26 01:48:06;;;;;;;2.42;1.05;;;9.20;36.10;;;;;;2351967;53;21037;-66
2021/04/26 01:50:32;;;;;;;3.85;1.35;;;9.10;36.20;;;;;;2370889;53;20969;-66
2021/04/26 01:52:59;;;;;;;2.35;1.00;;;9.10;36.30;;;;;;2349073;53;20911;-65
2021/04/26 01:55:25;;;;;;;2.55;1.02;;;9.10;36.40;;;;;;2368198;54;20934;-66
2021/04/26 01:57:52;;;;;;;2.42;1.00;;;9.10;36.50;;;;;;2355049;53;20945;-66
2021/04/26 02:00:24;;;;;;;2.78;1.08;;;9.10;36.60;;;;;;2357314;53;21032;-66
2021/04/26 02:02:51;;;;;;;3.03;1.10;;;9.10;36.80;;;;;;2360633;53;20922;-65
2021/04/26 02:05:18;;;;;;;3.78;0.95;;;9.10;36.60;;;;;;2354168;53;20977;-66
2021/04/26 02:07:48;;;;;;;2.90;1.05;;;9.00;36.70;;;;;;2360099;54;20966;-66
2021/04/26 02:10:17;;;;;;;2.03;0.90;;;9.00;36.80;;;;;;2595922;52;20937;-65
2021/04/26 02:12:43;;;;;;;2.05;1.00;;;9.00;36.80;;;;;;2337150;53;20949;-65
2021/04/26 02:15:13;;;;;;;2.45;0.80;;;9.00;36.70;;;;;;2364682;53;20950;-66
2021/04/26 02:17:40;;;;;;;2.90;1.05;;;9.00;36.80;;;;;;2370535;53;20922;-66
2021/04/26 02:20:07;;;;;;;2.22;0.93;;;9.00;36.80;;;;;;2371546;54;20930;-67
2021/04/26 02:22:33;;;;;;;2.20;0.80;;;9.00;36.90;;;;;;2371782;53;20982;-66
2021/04/26 02:25:05;;;;;;;2.30;1.02;;;8.90;36.80;;;;;;2554511;52;21032;-66
2021/04/26 02:27:31;;;;;;;2.97;1.10;;;8.90;36.80;;;;;;2619580;52;20953;-66
2021/04/26 02:29:58;;;;;;;4.43;1.23;;;8.90;36.90;;;;;;2623867;52;20922;-66
2021/04/26 02:32:27;;;;;;;2.80;0.98;;;8.90;37.00;;;;;;2350825;53;21856;-66
2021/04/26 02:34:53;;;;;;;2.47;0.95;;;8.80;37.10;;;;;;2371063;54;21045;-65
2021/04/26 02:38:05;;;;;;;2.15;0.88;;;8.80;37.00;;;;;;2363313;53;20945;-65
2021/04/26 02:40:35;;;;;;;1.87;0.80;;;8.70;37.40;;;;;;2352674;53;20957;-65
2021/04/26 02:43:01;;;;;;;2.33;1.00;;;8.70;36.90;;;;;;2370735;53;21053;-66
2021/04/26 02:45:29;;;;;;;3.78;1.23;;;8.60;36.90;;;;;;2353734;53;21897;-66
2021/04/26 02:47:57;;;;;;;2.80;0.80;;;8.60;37.10;;;;;;2478656;53;20988;-65
2021/04/26 02:50:24;;;;;;;4.78;1.23;;;8.50;37.00;;;;;;2351072;53;20913;-66
2021/04/26 02:52:51;;;;;;;2.20;0.90;;;8.50;37.20;;;;;;2367461;53;21037;-65
2021/04/26 02:55:20;;;;;;;2.72;1.00;;;8.40;37.20;;;;;;2356748;53;20913;-66
2021/04/26 02:57:47;;;;;;;2.45;0.93;;;8.40;37.40;;;;;;2370824;53;20961;-65
2021/04/26 03:00:17;;;;;;;4.78;1.17;;;8.30;37.30;;;;;;2350910;53;20958;-65
2021/04/26 03:02:43;;;;;;;2.60;1.08;;;8.30;37.40;;;;;;2363575;53;21052;-66
2021/04/26 03:05:10;;;;;;;2.35;1.20;;;8.20;37.40;;;;;;2606568;52;21407;-66
2021/04/26 03:07:37;;;;;;;2.33;0.98;;;8.10;37.40;;;;;;2370901;54;21735;-65
2021/04/26 03:10:07;;;;;;;5.25;1.10;;;8.10;37.50;;;;;;2371626;53;20930;-65
2021/04/26 03:12:34;;;;;;;3.12;1.20;;;8.10;37.60;;;;;;2372517;54;20978;-65
2021/04/26 03:15:01;;;;;;;2.12;0.90;;;8.00;37.40;;;;;;2346558;53;20934;-65
2021/04/26 03:17:28;;;;;;;2.00;0.90;;;7.90;37.50;;;;;;2502115;52;21025;-65
2021/04/26 03:19:54;;;;;;;2.47;1.02;;;7.90;37.70;;;;;;2351618;53;20933;-65
2021/04/26 03:22:20;;;;;;;2.50;0.90;;;7.90;37.60;;;;;;2351541;53;20961;-65
2021/04/26 03:24:47;;;;;;;1.92;0.88;;;7.80;37.60;;;;;;2371137;53;21807;-65
2021/04/26 03:27:14;;;;;;;2.72;1.08;;;7.80;37.80;;;;;;2351078;53;20956;-65
2021/04/26 03:29:42;;;;;;;2.75;1.10;;;7.70;38.00;;;;;;2359163;54;20973;-65
2021/04/26 03:32:12;;;;;;;2.35;1.00;;;7.70;38.20;;;;;;2603702;52;21532;-65
2021/04/26 03:34:39;;;;;;;1.85;0.80;;;7.70;38.30;;;;;;2347740;53;21010;-65
2021/04/26 03:37:05;;;;;;;2.65;1.02;;;7.60;38.20;;;;;;2375652;53;20986;-65
2021/04/26 03:39:33;;;;;;;2.83;0.90;;;7.60;38.30;;;;;;2348501;53;20981;-65
2021/04/26 03:41:59;;;;;;;3.03;0.90;;;7.60;38.30;;;;;;2356278;53;21259;-65
2021/04/26 03:44:26;;;;;;;4.43;1.20;;;7.50;38.30;;;;;;2365502;53;20930;-65
2021/04/26 03:46:56;;;;;;;2.37;1.00;;;7.50;38.40;;;;;;2371060;53;20985;-65
2021/04/26 03:49:24;;;;;;;3.83;1.00;;;7.50;38.50;;;;;;2623467;52;20898;-65
2021/04/26 03:51:51;;;;;;;2.50;0.82;;;7.50;38.40;;;;;;2371122;54;20909;-65
2021/04/26 03:54:17;;;;;;;2.30;1.00;;;7.40;38.30;;;;;;2356783;53;21607;-65
2021/04/26 03:56:44;;;;;;;3.78;1.10;;;7.40;38.40;;;;;;2363513;53;20954;-65
2021/04/26 03:59:12;;;;;;;2.15;1.05;;;7.40;38.50;;;;;;2606426;52;21698;-65
2021/04/26 04:01:38;;;;;;;3.03;1.00;;;7.30;38.50;;;;;;2361394;53;21021;-67
2021/04/26 04:04:05;;;;;;;2.40;1.02;;;7.30;38.60;;;;;;2511697;52;20952;-65
2021/04/26 04:06:31;;;;;;;2.25;1.20;;;7.30;38.60;;;;;;2371362;53;20989;-65
2021/04/26 04:09:01;;;;;;;3.45;1.10;;;7.20;38.60;;;;;;2364390;53;20972;-65
2021/04/26 04:11:27;;;;;;;3.58;1.23;;;7.20;38.70;;;;;;2340139;54;21481;-65
2021/04/26 04:13:54;;;;;;;4.10;1.40;;;7.20;38.80;;;;;;2371317;53;20969;-65
2021/04/26 04:16:20;;;;;;;3.70;1.17;;;7.10;38.90;;;;;;2370539;53;21393;-64
2021/04/26 04:18:47;;;;;;;2.78;1.15;;;7.10;38.90;;;;;;2371392;53;20961;-65
2021/04/26 04:21:13;;;;;;;2.60;1.05;;;7.00;38.80;;;;;;2371606;54;20941;-64
2021/04/26 04:23:39;;;;;;;3.10;1.20;;;7.00;38.80;;;;;;2608551;52;21004;-66
2021/04/26 04:26:05;;;;;;;2.80;1.08;;;7.00;38.80;;;;;;2609443;52;21413;-65
2021/04/26 04:28:32;;;;;;;2.90;1.05;;;6.90;38.90;;;;;;2609340;52;21417;-66
2021/04/26 04:30:58;;;;;;;2.60;1.10;;;6.90;39.10;;;;;;2371013;53;20978;-65
2021/04/26 04:33:25;;;;;;;2.17;1.00;;;6.90;39.10;;;;;;2352547;53;21001;-65
2021/04/26 04:35:52;;;;;;;2.45;1.10;;;6.80;39.10;;;;;;2468475;52;21037;-65
2021/04/26 04:38:19;;;;;;;3.05;1.20;;;6.80;39.40;;;;;;2370858;53;21001;-65
2021/04/26 04:40:45;;;;;;;3.72;1.42;;;6.80;39.60;;;;;;2346227;53;20938;-64
2021/04/26 04:43:11;;;;;;;4.95;1.20;;;6.80;39.60;;;;;;2368193;54;20997;-65
2021/04/26 04:45:37;;;;;;;2.85;1.20;;;6.80;39.60;;;;;;2371420;53;21415;-65
2021/04/26 04:48:04;;;;;;;4.15;1.20;;;6.80;39.70;;;;;;2370638;54;21026;-64
2021/04/26 04:50:31;;;;;;;3.33;1.55;;;6.70;39.80;;;;;;2352348;53;20937;-65
2021/04/26 04:52:57;;;;;;;2.83;1.42;;;6.70;40.00;;;;;;2337662;54;20992;-66
2021/04/26 04:55:27;;;;;;;2.67;1.20;;;6.70;39.90;;;;;;2368244;53;20960;-65
2021/04/26 04:57:53;;;;;;;3.85;1.30;;;6.70;40.00;;;;;;2430379;52;21013;-65
2021/04/26 05:00:21;;;;;;;2.25;0.98;;;6.70;40.10;;;;;;2350310;53;21020;-65
2021/04/26 05:02:47;;;;;;;2.97;1.12;;;6.70;40.20;;;;;;2371034;53;20933;-65
2021/04/26 05:05:14;;;;;;;4.68;1.42;;;6.70;40.10;;;;;;2355199;53;20929;-66
2021/04/26 05:07:40;;;;;;;3.33;1.40;;;6.70;40.20;;;;;;2364541;53;20965;-65
2021/04/26 05:10:07;;;;;;;5.80;1.42;;;6.70;40.30;;;;;;2354651;53;20966;-65
2021/04/26 05:12:34;;;;;;;3.40;1.40;;;6.80;40.50;;;;;;2371227;54;20945;-65
2021/04/26 05:15:01;;;;;;;2.75;1.27;;;6.80;40.50;;;;;;2371418;53;20982;-65
2021/04/26 05:17:27;;;;;;;2.85;1.30;;;6.80;40.60;;;;;;2370156;54;20934;-66
2021/04/26 05:19:53;;;;;;;2.97;1.17;;;6.80;40.70;;;;;;2371469;54;20965;-64
2021/04/26 05:22:20;;;;;;;3.12;1.15;;;6.80;40.60;;;;;;2353527;53;20977;-65
2021/04/26 05:24:49;;;;;;;4.60;1.33;;;6.80;40.60;;;;;;2372104;53;20909;-65
2021/04/26 05:27:15;;;;;;;3.37;1.00;;;6.90;40.80;;;;;;2351569;53;21022;-65
2021/04/26 05:29:41;;;;;;;3.83;1.25;;;6.90;40.90;;;;;;2534007;52;20949;-65
2021/04/26 05:32:07;;;;;;;3.92;1.30;;;6.90;40.80;;;;;;2368140;53;20960;-65
2021/04/26 05:34:34;;;;;;;4.12;1.17;;;6.90;40.80;;;;;;2334434;54;20938;-64
2021/04/26 05:37:00;;;;;;;4.28;1.30;;;6.90;40.90;;;;;;2370247;54;20926;-66
2021/04/26 05:39:29;;;;;;;4.47;1.48;;;6.90;41.00;;;;;;2370474;54;20946;-65
2021/04/26 05:41:56;;;;;;;3.72;1.65;;;7.00;41.10;;;;;;2370944;53;21077;-65
2021/04/26 05:44:23;;;;;;;4.43;1.65;;;7.00;41.20;;;;;;2371246;53;21460;-65
2021/04/26 05:46:49;;;;;;;4.22;1.90;;;7.00;41.10;;;;;;2371582;53;21446;-65
2021/04/26 05:49:15;;;;;;;4.12;1.80;;;7.10;41.20;;;;;;2370538;53;20949;-65
2021/04/26 05:51:42;;;;;;;4.47;1.52;;;7.20;41.30;;;;;;2370967;53;20946;-65
2021/04/26 05:54:08;;;;;;;4.55;2.08;;;7.20;41.40;;;;;;2358068;53;20932;-65
2021/04/26 05:56:34;;;;;;;3.95;1.80;;;7.30;41.40;;;;;;2365100;53;21426;-65
2021/04/26 05:59:00;;;;;;;4.53;1.70;;;7.30;41.60;;;;;;2371115;54;20945;-65
2021/04/26 06:01:28;;;;;;;3.95;1.60;;;7.40;41.40;;;;;;2405741;52;22994;-66
2021/04/26 06:03:54;;;;;;;3.37;1.52;;;7.50;41.40;;;;;;2371433;53;21061;-65
2021/04/26 06:06:23;;;;;;;4.90;2.03;;;7.50;41.40;;;;;;2624175;52;21653;-65
2021/04/26 06:08:49;;;;;;;4.85;1.70;;;7.60;41.50;;;;;;2622875;52;20906;-65
2021/04/26 06:11:16;;;;;;;4.45;1.35;;;7.70;41.60;;;;;;2371321;53;21379;-65
2021/04/26 06:13:42;;;;;;;3.12;1.50;;;7.70;41.60;;;;;;2371229;54;21439;-65
2021/04/26 06:16:08;;;;;;;3.47;1.52;;;7.80;41.60;;;;;;2351349;53;20965;-66
2021/04/26 06:18:35;;;;;;;3.08;1.48;;;7.90;41.70;;;;;;2371079;54;21059;-65
2021/04/26 06:21:01;;;;;;;3.22;1.40;;;7.90;41.80;;;;;;2345063;53;21723;-65
2021/04/26 06:23:27;;;;;;;4.15;1.58;;;8.00;41.80;;;;;;2371612;54;21017;-65
2021/04/26 06:25:54;;;;;;;4.12;1.58;;;8.10;41.80;;;;;;2490623;52;21124;-65
2021/04/26 06:28:20;;;;;;;5.12;1.70;;;8.20;41.80;;;;;;2371574;54;21818;-65
2021/04/26 06:30:46;;;;;;;5.60;1.95;;;8.30;41.90;;;;;;2371546;53;21021;-66
2021/04/26 06:33:16;;;;;;;4.35;1.60;;;8.40;41.90;;;;;;2370439;54;20938;-65
2021/04/26 06:35:43;;;;;;;4.55;1.42;;;8.50;41.90;;;;;;2371557;54;21004;-65
2021/04/26 06:38:10;;;;;;;5.22;1.60;;;8.60;42.00;;;;;;2371198;54;20993;-66
2021/04/26 06:40:42;;;;;;;4.30;1.65;;;8.70;42.10;;;;;;2371474;53;20982;-66
2021/04/26 06:43:08;;;;;;;4.25;1.90;;;8.80;42.10;;;;;;2430327;52;20949;-66
2021/04/26 06:45:34;;;;;;;4.15;1.80;;;8.90;42.10;;;;;;2371603;53;20937;-66
2021/04/26 06:48:01;;;;;;;5.20;1.48;;;9.00;42.10;;;;;;2371603;54;21029;-65
2021/04/26 06:50:27;;;;;;;4.03;1.67;;;9.10;42.10;;;;;;2371160;54;20941;-65
2021/04/26 06:52:55;;;;;;;3.72;1.48;;;9.20;42.10;;;;;;2371109;53;20930;-65
2021/04/26 06:55:22;;;;;;;3.30;1.40;;;9.40;42.30;;;;;;2576099;52;20986;-65
2021/04/26 06:57:48;;;;;;;3.67;1.40;;;9.60;43.10;;;;;;2371371;54;21454;-66
2021/04/26 07:00:15;;;;;;;4.37;1.58;;;9.90;44.00;;;;;;2371610;54;21477;-66
2021/04/26 07:02:41;;;;;;;5.10;1.70;;;10.30;43.90;;;;;;2623912;52;20929;-66
2021/04/26 07:05:08;;;;;;;6.12;1.77;;;10.70;44.40;;;;;;2355060;53;20936;-67
2021/04/26 07:07:34;;;;;;;3.67;1.60;;;11.20;44.80;;;;;;2368492;53;20926;-66
2021/04/26 07:10:01;;;;;;;5.72;1.75;;;11.70;45.10;;;;;;2371555;54;20946;-66
2021/04/26 07:12:28;;;;;;;3.87;1.75;;;12.30;45.60;;;;;;2555523;52;21057;-66
2021/04/26 07:14:55;;;;;;;4.32;1.80;;;12.80;45.80;;;;;;2422094;52;20992;-71
2021/04/26 07:17:23;;;;;;;5.20;1.98;;;13.30;45.70;;;;;;2596323;52;21009;-69
2021/04/26 07:19:50;;;;;;;3.58;1.67;;;13.90;45.40;;;;;;2371568;54;20969;-66
2021/04/26 07:22:16;;;;;;;6.40;1.70;;;14.40;45.10;;;;;;2371281;53;20982;-66
2021/04/26 07:24:44;;;;;;;3.08;1.50;;;14.90;44.30;;;;;;2371241;54;21009;-67
2021/04/26 07:27:10;;;;;;;4.22;1.50;;;15.40;44.10;;;;;;2371380;53;20930;-68
2021/04/26 07:29:36;;;;;;;4.20;1.73;;;15.70;43.60;;;;;;2371442;53;20934;-66
2021/04/26 07:32:03;;;;;;;4.03;1.62;;;16.10;43.30;;;;;;2374926;53;21453;-66
2021/04/26 07:34:29;;;;;;;4.72;2.00;;;16.50;43.00;;;;;;2370630;53;20993;-67
2021/04/26 07:36:57;;;;;;;4.45;1.87;;;16.80;42.60;;;;;;2371649;54;21478;-66
2021/04/26 07:39:24;;;;;;;4.35;2.08;;;17.10;42.20;;;;;;2548715;52;20934;-66
2021/04/26 07:41:51;;;;;;;4.10;1.50;;;17.40;42.10;;;;;;2371613;53;20938;-67
2021/04/26 07:44:20;;;;;;;3.97;1.40;;;17.70;41.70;;;;;;2371776;53;20922;-66
2021/04/26 07:46:47;;;;;;;3.17;1.52;;;18.00;41.00;;;;;;2585964;52;20933;-66
2021/04/26 07:49:13;;;;;;;4.25;2.17;;;18.20;40.20;;;;;;2346728;53;1464367;-67
2021/04/26 07:51:39;;;;;;;3.90;1.60;;;18.30;39.20;;;;;;2367227;53;21343;-66
2021/04/26 07:54:05;;;;;;;5.10;2.03;;;18.30;38.30;;;;;;2356129;53;20962;-68
2021/04/26 07:56:32;;;;;;;5.43;2.00;;;18.20;37.50;;;;;;2370977;53;21491;-69
2021/04/26 07:58:58;;;;;;;5.32;1.75;;;18.00;36.80;;;;;;2371450;53;20953;-68
2021/04/26 08:01:26;;;;;;;6.87;2.00;;;17.80;36.20;;;;;;2371530;53;20981;-68
2021/04/26 08:03:52;;;;;;;4.68;2.03;;;17.60;35.90;;;;;;2371909;54;20934;-67
2021/04/26 08:06:19;;;;;;;4.70;1.98;;;17.40;35.90;;;;;;2371340;53;21033;-66
2021/04/26 08:08:45;;;;;;;5.50;2.10;;;17.20;35.90;;;;;;2379433;52;21016;-71
2021/04/26 08:11:11;;;;;;;4.18;2.10;;;17.10;36.00;;;;;;2351678;53;20955;-66
2021/04/26 08:13:37;;;;;;;3.75;2.15;;;16.90;35.90;;;;;;2367998;53;21006;-66
2021/04/26 08:16:05;;;;;;;8.70;2.70;;;16.80;35.90;;;;;;2624612;52;21495;-69
2021/04/26 08:18:32;;;;;;;4.75;2.03;;;16.70;36.10;;;;;;2371085;53;20937;-67
2021/04/26 08:20:59;;;;;;;6.45;2.05;;;16.70;36.50;;;;;;2362204;54;20922;-67
2021/04/26 08:23:25;;;;;;;4.78;2.15;;;16.80;37.20;;;;;;2364241;54;20960;-67
2021/04/26 08:25:51;;;;;;;4.87;2.12;;;16.90;38.30;;;;;;2357794;53;21508;-68
2021/04/26 08:28:19;;;;;;;4.97;2.10;;;17.10;38.10;;;;;;2587942;52;20979;-68
2021/04/26 08:30:47;;;;;;;5.10;2.12;;;17.30;38.60;;;;;;2370284;53;20961;-70
2021/04/26 08:33:14;;;;;;;5.07;1.98;;;17.60;39.10;;;;;;2371360;53;21073;-70
2021/04/26 08:35:40;;;;;;;5.20;2.00;;;17.90;39.20;;;;;;2624244;52;20906;-66
2021/04/26 08:38:07;;;;;;;5.05;2.47;;;18.20;39.50;;;;;;2371188;54;21463;-67
2021/04/26 08:40:33;;;;;;;5.60;2.15;;;18.40;38.40;;;;;;2349270;53;20933;-67
2021/04/26 08:43:03;;;;;;;4.35;2.00;;;18.60;37.80;;;;;;2350995;53;21358;-68
2021/04/26 08:45:30;;;;;;;4.47;1.73;;;18.80;37.50;;;;;;2593591;52;20993;-70
2021/04/26 08:47:56;;;;;;;3.90;1.95;;;18.80;37.30;;;;;;2350221;53;20962;-68
2021/04/26 08:50:26;;;;;;;4.68;1.90;;;18.90;36.90;;;;;;2370637;53;21101;-67
2021/04/26 08:52:52;;;;;;;6.00;2.00;;;19.00;36.60;;;;;;2371856;54;21726;-69
2021/04/26 08:55:19;;;;;;;6.32;1.80;;;19.10;36.60;;;;;;2624324;52;20994;-70
2021/04/26 08:57:46;;;;;;;5.18;2.00;;;19.10;36.30;;;;;;2371112;54;21073;-69
2021/04/26 09:00:13;;;;;;;5.53;2.25;;;19.20;36.10;;;;;;2352140;54;20998;-70
2021/04/26 09:03:12;;;;;;;4.15;2.33;;;19.30;35.80;;;;;;2623950;52;20993;-71
2021/04/26 09:05:40;;;;;;;3.87;1.85;;;19.30;35.20;;;;;;2371229;54;21300;-68
2021/04/26 09:08:09;;;;;;;4.60;2.10;;;19.30;35.80;;;;;;2416150;52;21024;-66
2021/04/26 09:10:45;;;;;;;4.07;1.80;;;19.40;36.10;;;;;;2350463;53;21143;-67
2021/04/26 09:13:49;;;;;;;5.30;1.60;;;19.40;35.90;;;;;;2323575;54;21001;-67
2021/04/26 09:16:23;;;;;;;4.70;1.85;;;19.60;36.20;;;;;;2306127;54;20963;-68
2021/04/26 09:18:56;;;;;;;5.82;1.90;;;19.80;36.50;;;;;;2326358;54;20968;-71
2021/04/26 09:21:46;;;;;;;4.60;1.98;;;20.10;36.20;;;;;;2493167;53;21003;-67
2021/04/26 09:24:28;;;;;;;3.95;1.60;;;20.30;35.90;;;;;;2343648;54;20927;-69
2021/04/26 09:27:12;;;;;;;4.47;1.75;;;20.50;35.70;;;;;;2336037;53;20948;-67
2021/04/26 09:29:41;;;;;;;6.32;1.50;;;20.70;35.00;;;;;;2319732;54;21106;-69
2021/04/26 09:32:17;;;;;;;6.70;1.77;;;20.70;34.30;;;;;;2340968;53;20933;-69
2021/04/26 09:34:45;;;;;;;5.93;2.00;;;20.70;33.70;;;;;;2323970;54;21395;-67
2021/04/26 09:37:25;;;;;;;5.05;1.75;;;20.60;33.40;;;;;;2370254;54;20960;-68
2021/04/26 09:44:23;;;;;;;3.53;1.77;;;20.60;33.10;;;;;;2356395;53;21719;-67
2021/04/26 09:46:54;;;;;;;3.78;1.70;;;20.50;33.20;;;;;;2366471;53;21043;-68
2021/04/26 09:49:23;;;;;;;3.92;1.95;;;20.40;33.30;;;;;;2320035;54;20954;-68
2021/04/26 09:51:52;;;;;;;5.80;1.87;;;20.40;33.10;;;;;;2556824;53;21070;-68
2021/04/26 09:54:41;;;;;;;4.37;2.08;;;20.30;33.00;;;;;;2345292;53;20935;-67
2021/04/26 09:57:07;;;;;;;5.97;2.15;;;20.30;33.00;;;;;;2341688;53;20931;-67
2021/04/26 09:59:34;;;;;;;4.47;1.73;;;20.30;33.60;;;;;;2343331;53;21363;-67
2021/04/26 10:02:00;;;;;;;4.50;1.80;;;20.30;33.90;;;;;;2343391;54;20919;-69
2021/04/26 10:04:27;;;;;;;5.05;2.05;;;20.40;34.20;;;;;;2346787;54;20959;-67
2021/04/26 10:06:54;;;;;;;5.93;1.62;;;20.50;34.20;;;;;;2339309;54;20919;-67
2021/04/26 10:09:21;;;;;;;6.22;1.87;;;20.50;34.10;;;;;;2513162;54;20987;-71
2021/04/26 10:11:47;;;;;;;4.03;1.77;;;20.60;34.20;;;;;;2340129;53;21079;-69
2021/04/26 10:14:15;;;;;;;8.00;1.83;;;20.80;34.20;;;;;;2347048;53;21588;-67
2021/04/26 10:16:53;;;;;;;5.62;1.85;;;21.00;34.30;;;;;;2344175;54;21126;-68
2021/04/26 10:19:30;;;;;;;4.18;1.83;;;21.20;34.20;;;;;;2348736;54;21033;-68
2021/04/26 10:21:58;;;;;;;4.90;2.03;;;21.40;33.50;;;;;;2371227;54;20997;-68
2021/04/26 10:24:26;;;;;;;7.32;2.22;;;21.50;33.40;;;;;;2371144;53;20917;-68
2021/04/26 10:26:56;;;;;;;4.90;2.00;;;21.60;33.10;;;;;;2346441;54;20965;-67
2021/04/26 10:29:57;;;;;;;6.57;2.12;;;21.70;32.90;;;;;;2331549;54;20993;-68
2021/04/26 10:32:25;;;;;;;4.07;1.98;;;21.80;32.50;;;;;;2328568;54;20973;-72
2021/04/26 10:35:10;;;;;;;4.53;2.47;;;21.80;32.80;;;;;;2346658;54;21001;-67
2021/04/26 10:37:36;;;;;;;5.07;1.90;;;22.00;32.50;;;;;;2370676;53;20905;-69
2021/04/26 10:40:06;;;;;;;5.45;1.73;;;22.10;33.00;;;;;;2370702;53;20925;-67
2021/04/26 10:42:33;;;;;;;5.57;1.80;;;22.20;32.90;;;;;;2616914;52;21526;-67
2021/04/26 10:45:00;;;;;;;3.72;2.10;;;22.30;33.10;;;;;;2621902;52;21449;-68
2021/04/26 10:47:32;;;;;;;3.10;1.77;;;22.50;33.20;;;;;;2370376;54;20929;-68
2021/04/26 10:50:48;;;;;;;4.32;1.80;;;22.70;33.00;;;;;;2361755;53;20973;-68
2021/04/26 10:53:15;;;;;;;4.35;1.85;;;23.00;32.80;;;;;;2368968;53;20929;-72
2021/04/26 10:55:57;;;;;;;;;;;23.10;32.80;;;;;;2360132;53;21599;-70
2021/04/26 10:58:28;;;;;;;5.07;1.65;;;23.30;32.60;;;;;;2364102;53;20145;-67
2021/04/26 11:00:55;;;;;;;4.05;1.80;;;23.30;31.80;;;;;;2374151;54;20937;-67
2021/04/26 11:03:31;;;;;;;3.97;1.98;;;23.40;31.70;;;;;;2348878;53;21291;-68
2021/04/26 11:06:07;;;;;;;5.37;1.80;;;23.40;30.90;;;;;;2618990;52;20978;-67
2021/04/26 11:08:39;;;;;;;5.40;2.22;;;23.30;30.60;;;;;;2619148;52;20950;-68
2021/04/26 11:15:17;;;;;;;5.93;1.92;;;23.20;30.70;;;;;;2311270;54;20941;-67
2021/04/26 11:17:44;;;;;;;6.95;2.10;;;23.20;31.00;;;;;;2337470;54;21448;-71
2021/04/26 11:20:22;;;;;;;3.53;1.80;;;23.30;31.50;;;;;;2338372;54;20992;-67
2021/04/26 11:22:48;;;;;;;4.50;2.33;;;23.40;31.20;;;;;;2338300;54;20952;-71
2021/04/26 11:25:40;;;;;;;6.97;2.10;;;23.50;31.40;;;;;;2361593;53;20913;-69
2021/04/26 11:28:12;;;;;;;3.78;2.05;;;23.60;30.60;;;;;;2370436;53;20893;-70
2021/04/26 11:30:50;;;;;;;3.87;1.95;;;23.60;30.80;;;;;;2372220;53;21024;-71
2021/04/26 11:33:18;;;;;;;3.08;1.77;;;23.70;30.60;;;;;;2595355;52;21719;-71
2021/04/26 11:36:09;;;;;;;3.87;1.70;;;23.70;30.80;;;;;;2357454;53;20937;-67
2021/04/26 11:38:38;;;;;;;6.30;2.10;;;23.80;30.40;;;;;;2365901;53;20896;-67
2021/04/26 11:41:07;;;;;;;4.28;2.22;;;23.90;30.60;;;;;;2359259;53;20928;-70
2021/04/26 11:43:33;;;;;;;3.60;2.10;;;24.00;30.50;;;;;;2358230;54;20953;-69
2021/04/26 11:46:00;;;;;;;3.62;2.03;;;24.10;30.30;;;;;;2347037;53;20921;-67
2021/04/26 11:48:27;;;;;;;5.07;2.08;;;24.10;30.00;;;;;;2361857;53;20940;-67
2021/04/26 11:50:56;;;;;;;4.72;2.03;;;24.10;29.90;;;;;;2427200;53;20932;-71
2021/04/26 11:53:29;;;;;;;4.20;1.98;;;24.20;29.80;;;;;;2370394;54;21513;-69
2021/04/26 11:56:00;;;;;;;4.37;2.15;;;24.20;29.50;;;;;;2623959;52;21366;-69
2021/04/26 11:58:26;;;;;;;4.90;2.40;;;24.10;29.30;;;;;;2370872;54;20925;-69
2021/04/26 12:01:05;;;;;;;4.25;2.15;;;24.10;29.20;;;;;;2623097;52;20882;-71
2021/04/26 12:03:31;;;;;;;3.37;1.90;;;24.00;28.60;;;;;;2589709;52;20974;-69
2021/04/26 12:06:00;;;;;;;3.45;1.67;;;23.90;29.00;;;;;;2338201;54;20992;-69
2021/04/26 12:08:41;;;;;;;5.18;2.20;;;24.00;29.10;;;;;;2338404;54;21005;-68
2021/04/26 12:11:14;;;;;;;4.87;2.17;;;24.00;29.20;;;;;;2337460;53;20933;-69
2021/04/26 12:13:41;;;;;;;4.68;2.17;;;24.00;29.10;;;;;;2335864;53;20988;-68
2021/04/26 12:16:07;;;;;;;4.80;2.12;;;24.00;29.50;;;;;;2599575;52;20962;-67
2021/04/26 12:18:33;;;;;;;4.12;1.70;;;24.10;29.80;;;;;;2337555;53;20924;-68
2021/04/26 12:20:59;;;;;;;5.00;2.00;;;24.20;29.90;;;;;;2338425;53;21425;-70
2021/04/26 12:23:26;;;;;;;5.18;1.95;;;24.40;29.90;;;;;;2356885;53;20984;-67
2021/04/26 12:25:52;;;;;;;6.32;2.20;;;24.50;29.50;;;;;;2325954;53;20967;-67
2021/04/26 12:28:18;;;;;;;4.43;1.95;;;24.70;29.60;;;;;;2326341;53;21000;-69
2021/04/26 12:30:46;;;;;;;5.32;2.42;;;24.80;29.60;;;;;;2336053;54;20984;-69
2021/04/26 12:33:30;;;;;;;7.55;2.05;;;24.90;29.40;;;;;;2337936;53;21556;-69
2021/04/26 12:35:56;;;;;;;4.75;1.90;;;25.00;28.70;;;;;;2309692;55;20968;-70
2021/04/26 12:38:23;;;;;;;5.53;2.12;;;25.10;28.80;;;;;;2334403;54;20931;-69
2021/04/26 12:40:49;;;;;;;4.70;2.00;;;25.10;28.50;;;;;;2347075;54;20940;-67
2021/04/26 12:43:15;;;;;;;4.12;1.73;;;25.10;28.40;;;;;;2414343;53;21856;-70
2021/04/26 12:45:46;;;;;;;7.30;2.33;;;25.10;28.10;;;;;;2311580;54;20920;-70
2021/04/26 12:48:14;;;;;;;3.22;1.67;;;25.10;28.00;;;;;;2325805;54;20967;-69
2021/04/26 12:50:46;;;;;;;3.67;1.87;;;25.10;27.90;;;;;;2379421;53;20939;-69
2021/04/26 12:53:15;;;;;;;;;;;25.10;27.80;;;;;;2317689;55;20931;-68
2021/04/26 12:56:53;;;;;;;4.15;1.58;;;25.10;28.30;;;;;;2337505;54;20066;-69
2021/04/26 12:59:20;;;;;;;5.18;1.90;;;25.10;27.60;;;;;;2342805;53;20949;-69
2021/04/26 13:01:59;;;;;;;4.10;2.30;;;25.10;27.70;;;;;;2344556;53;20968;-71
2021/04/26 13:04:33;;;;;;;5.60;2.17;;;25.00;27.30;;;;;;2342071;53;21410;-71
2021/04/26 13:06:59;;;;;;;5.72;1.73;;;24.90;27.50;;;;;;2345292;53;20959;-69
2021/04/26 13:09:25;;;;;;;4.55;2.00;;;24.80;27.50;;;;;;2585490;52;21638;-69
2021/04/26 13:11:55;;;;;;;6.68;2.10;;;24.80;27.40;;;;;;2343516;54;20973;-67
2021/04/26 13:14:29;;;;;;;4.82;2.30;;;24.70;27.30;;;;;;2343518;54;21034;-70
2021/04/26 13:17:11;;;;;;;3.75;1.90;;;24.60;27.10;;;;;;2343543;54;20942;-68
2021/04/26 13:19:42;;;;;;;4.32;1.92;;;24.60;27.10;;;;;;2343030;53;20958;-66